This is the latest recevied weather packets stored in our database for station/object DL6DJ-15. If no packets are shown the sender has not sent any weather packets the latest 10 day(s).
| Time | Temp. | Humidity | Pressure | Rain* | Wind** | Luminosity | Snow |
|---|---|---|---|---|---|---|---|
| 1777663435 | 10.56° C | 55% | 1026.6 hPa | - | - | - | - |
| 1777663134 | 10.56° C | 55% | 1026.5 hPa | - | - | - | - |
| 1777662834 | 11.11° C | 55% | 1026.5 hPa | - | - | - | - |
| 1777662534 | 11.11° C | 54% | 1026.5 hPa | - | - | - | - |
| 1777662233 | 11.11° C | 53% | 1026.5 hPa | - | - | - | - |
| 1777661933 | 11.67° C | 54% | 1026.4 hPa | - | - | - | - |
| 1777661632 | 11.67° C | 53% | 1026.4 hPa | - | - | - | - |
| 1777661332 | 11.67° C | 53% | 1026.4 hPa | - | - | - | - |
| 1777661031 | 12.22° C | 52% | 1026.4 hPa | - | - | - | - |
| 1777660731 | 12.22° C | 52% | 1026.4 hPa | - | - | - | - |
| 1777660431 | 12.78° C | 51% | 1026.3 hPa | - | - | - | - |
| 1777660131 | 12.78° C | 51% | 1026.3 hPa | - | - | - | - |
| 1777659830 | 13.33° C | 50% | 1026.3 hPa | - | - | - | - |
| 1777659529 | 13.89° C | 49% | 1026.2 hPa | - | - | - | - |
| 1777659229 | 13.89° C | 48% | 1026.2 hPa | - | - | - | - |
| 1777658929 | 14.44° C | 46% | 1026.2 hPa | - | - | - | - |
| 1777658628 | 15.56° C | 44% | 1026.1 hPa | - | - | - | - |
| 1777658328 | 16.11° C | 42% | 1026.1 hPa | - | - | - | - |
| 1777658028 | 17.22° C | 38% | 1026.1 hPa | - | - | - | - |
| 1777657727 | 18.33° C | 36% | 1026.1 hPa | - | - | - | - |
| 1777657427 | 18.89° C | 31% | 1026.1 hPa | - | - | - | - |
| 1777657127 | 18.89° C | 30% | 1026.1 hPa | - | - | - | - |
| 1777656826 | 18.89° C | 29% | 1026 hPa | - | - | - | - |
| 1777656526 | 18.89° C | 30% | 1026 hPa | - | - | - | - |
| 1777656226 | 19.44° C | 29% | 1026 hPa | - | - | - | - |
* Rain since midnight (hover to see other rain measurements)
** Current wind speed in m/s (hover to see current wind gust speed)